Time;durP1;ratioP1;P1;durP2;ratioP2;P2;SDS_P1;SDS_P2;PMS_P1;PMS_P2;Temp;Humidity;BMP_temperature;BMP_pressure;BME280_temperature;BME280_humidity;BME280_pressure;Samples;Min_cycle;Max_cycle;Signal;HPM_P1;HPM_P2
2023/08/23 00:00:27;;;;;;;9.93;9.63;;;22.30;99.90;;;;;;6165225;23;20240;-78
2023/08/23 00:02:54;;;;;;;10.10;9.80;;;22.30;99.90;;;;;;6162536;23;20227;-78
2023/08/23 00:05:21;;;;;;;9.90;9.60;;;22.30;99.90;;;;;;6162213;23;20263;-78
2023/08/23 00:07:48;;;;;;;9.93;9.63;;;22.30;99.90;;;;;;6162622;23;20279;-77
2023/08/23 00:10:16;;;;;;;10.00;9.70;;;22.30;99.90;;;;;;6162366;23;20248;-78
2023/08/23 00:12:43;;;;;;;10.00;9.70;;;22.30;99.90;;;;;;6162120;23;20287;-78
2023/08/23 00:15:11;;;;;;;10.00;9.70;;;22.20;99.90;;;;;;6162317;23;20283;-79
2023/08/23 00:17:38;;;;;;;9.80;9.50;;;22.20;99.90;;;;;;6162050;23;20193;-78
2023/08/23 00:20:07;;;;;;;9.80;9.50;;;22.10;99.90;;;;;;6162345;23;20506;-78
2023/08/23 00:22:34;;;;;;;10.02;9.73;;;22.00;99.90;;;;;;6161695;23;20287;-79
2023/08/23 00:25:01;;;;;;;10.20;9.90;;;21.90;99.90;;;;;;6163212;23;20199;-78
2023/08/23 00:27:28;;;;;;;10.00;9.70;;;21.80;99.90;;;;;;6163553;23;20199;-78
2023/08/23 00:29:55;;;;;;;10.05;9.75;;;21.80;99.90;;;;;;6163317;23;20267;-78
2023/08/23 00:32:24;;;;;;;10.30;10.00;;;21.90;99.90;;;;;;6162979;23;20203;-78
2023/08/23 00:34:51;;;;;;;10.20;9.90;;;21.80;99.90;;;;;;6163156;23;20196;-78
2023/08/23 00:37:18;;;;;;;10.20;9.90;;;21.80;99.90;;;;;;6163660;23;20207;-78
2023/08/23 00:39:45;;;;;;;10.30;10.00;;;21.80;99.90;;;;;;6163169;23;20279;-78
2023/08/23 00:42:12;;;;;;;10.30;10.00;;;21.90;99.90;;;;;;6163088;23;20206;-78
2023/08/23 00:44:39;;;;;;;10.20;9.90;;;21.90;99.90;;;;;;6163300;23;20271;-78
2023/08/23 00:47:06;;;;;;;10.13;9.82;;;22.00;99.90;;;;;;6163797;23;20196;-78
2023/08/23 00:49:35;;;;;;;10.10;9.80;;;22.00;99.90;;;;;;6164498;23;20272;-78
2023/08/23 00:52:04;;;;;;;10.40;10.10;;;21.90;99.90;;;;;;6163683;23;20283;-78
2023/08/23 00:54:31;;;;;;;10.38;10.07;;;21.90;99.90;;;;;;6164631;23;20196;-77
2023/08/23 00:57:01;;;;;;;10.50;10.20;;;21.80;99.90;;;;;;6167627;23;20203;-76
2023/08/23 00:59:30;;;;;;;10.40;10.10;;;21.80;99.90;;;;;;6175912;23;20275;-76
2023/08/23 01:01:58;;;;;;;10.35;10.05;;;21.70;99.90;;;;;;6165409;23;20227;-77
2023/08/23 01:04:25;;;;;;;10.55;10.25;;;21.70;99.90;;;;;;6165261;23;20219;-77
2023/08/23 01:07:06;;;;;;;10.55;10.25;;;21.70;99.90;;;;;;6165136;23;20200;-77
2023/08/23 01:09:44;;;;;;;10.50;10.20;;;21.70;99.90;;;;;;6164698;23;20206;-77
2023/08/23 01:12:21;;;;;;;10.52;10.23;;;21.70;99.90;;;;;;6164642;23;20210;-77
2023/08/23 01:14:54;;;;;;;10.45;10.15;;;21.60;99.90;;;;;;6164501;23;20220;-77
2023/08/23 01:17:22;;;;;;;10.48;10.18;;;21.60;99.90;;;;;;6164227;23;20199;-77
2023/08/23 01:19:51;;;;;;;10.60;10.30;;;21.50;99.90;;;;;;6164039;23;20586;-77
2023/08/23 01:22:22;;;;;;;10.80;10.50;;;21.50;99.90;;;;;;6165012;23;20232;-77
2023/08/23 01:24:51;;;;;;;10.60;10.30;;;21.40;99.90;;;;;;6166430;23;20192;-77
2023/08/23 01:27:18;;;;;;;10.70;10.40;;;21.40;99.90;;;;;;6165068;23;20255;-77
2023/08/23 01:29:45;;;;;;;10.80;10.50;;;21.40;99.90;;;;;;6163954;23;20219;-77
2023/08/23 01:32:37;;;;;;;10.48;10.18;;;21.30;99.90;;;;;;6163214;23;20212;-77
2023/08/23 01:35:12;;;;;;;10.23;9.93;;;21.30;99.90;;;;;;6162576;23;20280;-77
2023/08/23 01:37:41;;;;;;;10.50;10.20;;;21.20;99.90;;;;;;6163828;23;20195;-77
2023/08/23 01:40:12;;;;;;;10.10;9.80;;;21.10;99.90;;;;;;6163072;23;20208;-77
2023/08/23 01:42:40;;;;;;;10.30;10.00;;;21.10;99.90;;;;;;6163166;23;20200;-77
2023/08/23 01:45:09;;;;;;;10.30;10.00;;;21.10;99.90;;;;;;6163127;23;20208;-77
2023/08/23 01:47:36;;;;;;;10.13;9.82;;;21.10;99.90;;;;;;6163871;23;20224;-77
2023/08/23 01:50:04;;;;;;;10.13;9.82;;;21.10;99.90;;;;;;6163352;23;20198;-77
2023/08/23 01:52:31;;;;;;;10.10;9.80;;;21.10;99.90;;;;;;6163175;23;20232;-77
2023/08/23 01:54:58;;;;;;;9.98;9.68;;;21.10;99.90;;;;;;6166170;23;20235;-77
2023/08/23 01:57:27;;;;;;;9.80;9.50;;;21.00;99.90;;;;;;6169085;23;20257;-76
2023/08/23 01:59:55;;;;;;;9.80;9.50;;;21.00;99.90;;;;;;6168168;23;20224;-77
2023/08/23 02:02:22;;;;;;;9.90;9.60;;;20.90;99.90;;;;;;6166136;23;20216;-77
2023/08/23 02:04:49;;;;;;;10.20;9.90;;;20.60;99.90;;;;;;6164920;23;20232;-77
2023/08/23 02:07:16;;;;;;;10.10;9.80;;;20.50;99.90;;;;;;6164413;23;20202;-77
2023/08/23 02:09:43;;;;;;;9.98;9.68;;;20.40;99.90;;;;;;6163971;23;20214;-77
2023/08/23 02:12:10;;;;;;;10.02;9.73;;;20.40;99.90;;;;;;6163111;23;20285;-77
2023/08/23 02:14:38;;;;;;;9.90;9.60;;;20.40;99.90;;;;;;6163763;23;20240;-77
2023/08/23 02:17:05;;;;;;;10.07;9.77;;;20.30;99.90;;;;;;6164601;23;20192;-77
2023/08/23 02:19:32;;;;;;;10.20;9.90;;;20.30;99.90;;;;;;6163952;23;20279;-77
2023/08/23 02:21:59;;;;;;;10.18;9.88;;;20.40;99.90;;;;;;6162589;23;20208;-77
2023/08/23 02:24:26;;;;;;;10.13;9.82;;;20.40;99.90;;;;;;6163184;23;20200;-77
2023/08/23 02:26:53;;;;;;;10.20;9.90;;;20.50;99.90;;;;;;6162964;23;20198;-78
2023/08/23 02:29:20;;;;;;;10.07;9.77;;;20.50;99.90;;;;;;6163666;23;20287;-77
2023/08/23 02:31:49;;;;;;;10.10;9.80;;;20.40;99.90;;;;;;6162217;23;20208;-78
2023/08/23 02:34:16;;;;;;;9.80;9.50;;;20.30;99.90;;;;;;6162975;23;20207;-76
2023/08/23 02:36:43;;;;;;;10.10;9.80;;;20.30;99.90;;;;;;6163097;23;20264;-77
2023/08/23 02:39:11;;;;;;;10.10;9.80;;;20.30;99.90;;;;;;6163434;23;20259;-77
2023/08/23 02:41:38;;;;;;;9.93;9.63;;;20.20;99.90;;;;;;6162393;23;21009;-77
2023/08/23 02:44:05;;;;;;;9.80;9.50;;;20.20;99.90;;;;;;6163140;23;20207;-77
2023/08/23 02:46:32;;;;;;;10.05;9.75;;;20.20;99.90;;;;;;6163183;23;20263;-77
2023/08/23 02:49:01;;;;;;;10.10;9.80;;;20.20;99.90;;;;;;6163218;23;20223;-77
2023/08/23 02:51:28;;;;;;;10.10;9.80;;;20.20;99.90;;;;;;6163897;23;20686;-76
2023/08/23 02:53:55;;;;;;;9.90;9.60;;;20.20;99.90;;;;;;6166306;23;20208;-77
2023/08/23 02:56:23;;;;;;;9.80;9.50;;;20.20;99.90;;;;;;6163282;23;20247;-77
2023/08/23 02:58:50;;;;;;;10.10;9.80;;;20.10;99.90;;;;;;6163330;23;20230;-77
2023/08/23 03:01:17;;;;;;;9.63;9.32;;;20.10;99.90;;;;;;6162650;23;20263;-77
2023/08/23 03:03:44;;;;;;;9.90;9.60;;;20.10;99.90;;;;;;6162985;23;20283;-77
2023/08/23 03:06:13;;;;;;;9.82;9.52;;;20.10;99.90;;;;;;6163253;23;20252;-78
2023/08/23 03:08:40;;;;;;;9.93;9.63;;;20.00;99.90;;;;;;6163215;23;20283;-77
2023/08/23 03:11:08;;;;;;;9.60;9.30;;;20.00;99.90;;;;;;6162868;23;20271;-77
2023/08/23 03:13:36;;;;;;;9.82;9.52;;;20.10;99.90;;;;;;6162697;23;20206;-77
2023/08/23 03:16:03;;;;;;;9.80;9.50;;;20.10;99.90;;;;;;6163037;23;20255;-77
2023/08/23 03:18:31;;;;;;;10.15;9.85;;;20.10;99.90;;;;;;6162795;23;20281;-76
2023/08/23 03:20:58;;;;;;;9.88;9.57;;;20.10;99.90;;;;;;6161986;23;20294;-77
2023/08/23 03:23:26;;;;;;;9.80;9.50;;;20.10;99.90;;;;;;6162286;23;20246;-77
2023/08/23 03:25:53;;;;;;;9.90;9.60;;;20.10;99.90;;;;;;6162489;23;20200;-77
2023/08/23 03:28:20;;;;;;;9.80;9.50;;;20.10;99.90;;;;;;6163017;23;20283;-77
2023/08/23 03:30:47;;;;;;;9.93;9.63;;;20.00;99.90;;;;;;6163078;23;20206;-77
2023/08/23 03:33:14;;;;;;;9.73;9.43;;;19.90;99.90;;;;;;6163295;23;20208;-77
2023/08/23 03:35:41;;;;;;;9.90;9.60;;;19.90;99.90;;;;;;6163515;23;20196;-76
2023/08/23 03:38:08;;;;;;;10.00;9.70;;;19.80;99.90;;;;;;6164406;23;20205;-77
2023/08/23 03:40:38;;;;;;;9.60;9.30;;;19.80;99.90;;;;;;6163575;23;20279;-77
2023/08/23 03:43:06;;;;;;;9.90;9.60;;;19.90;99.90;;;;;;6162944;23;20212;-77
2023/08/23 03:45:34;;;;;;;9.82;9.52;;;19.90;99.90;;;;;;6163172;23;20192;-77
2023/08/23 03:48:01;;;;;;;9.73;9.43;;;19.90;99.90;;;;;;6163295;23;20258;-77
2023/08/23 03:50:28;;;;;;;9.73;9.43;;;19.90;99.90;;;;;;6165656;23;20275;-77
2023/08/23 03:52:55;;;;;;;9.82;9.52;;;19.80;99.90;;;;;;6162322;23;20211;-77
2023/08/23 03:55:22;;;;;;;9.90;9.60;;;19.80;99.90;;;;;;6162626;23;20196;-76
2023/08/23 03:57:51;;;;;;;10.20;9.90;;;19.80;99.90;;;;;;6162560;23;20192;-77
2023/08/23 04:00:19;;;;;;;10.40;10.10;;;19.80;99.90;;;;;;6163352;23;20207;-77
2023/08/23 04:02:46;;;;;;;10.75;10.45;;;19.80;99.90;;;;;;6163149;23;20278;-77
2023/08/23 04:05:13;;;;;;;10.50;10.20;;;19.80;99.90;;;;;;6163917;23;20199;-77
2023/08/23 04:07:41;;;;;;;10.70;10.40;;;19.70;99.90;;;;;;6163660;23;20203;-77
2023/08/23 04:10:09;;;;;;;11.00;10.70;;;19.70;99.90;;;;;;6163919;23;20216;-77
2023/08/23 04:12:36;;;;;;;11.23;10.82;;;19.70;99.90;;;;;;6163463;23;20204;-77
2023/08/23 04:15:07;;;;;;;11.00;10.70;;;19.60;99.90;;;;;;6164451;23;20271;-76
2023/08/23 04:17:34;;;;;;;10.90;10.60;;;19.60;99.90;;;;;;6165892;23;20196;-77
2023/08/23 04:20:01;;;;;;;10.88;10.57;;;19.60;99.90;;;;;;6164825;23;20205;-77
2023/08/23 04:22:30;;;;;;;11.30;10.90;;;19.50;99.90;;;;;;6163752;23;20208;-77
2023/08/23 04:24:57;;;;;;;10.77;10.48;;;19.50;99.90;;;;;;6163994;23;20192;-77
2023/08/23 04:27:24;;;;;;;11.15;10.75;;;19.50;99.90;;;;;;6163419;23;20196;-78
2023/08/23 04:29:52;;;;;;;10.68;10.38;;;19.50;99.90;;;;;;6164050;23;20284;-78
2023/08/23 04:32:20;;;;;;;10.77;10.48;;;19.50;99.90;;;;;;6163134;23;20208;-77
2023/08/23 04:34:48;;;;;;;10.85;10.55;;;19.50;99.90;;;;;;6163245;23;20292;-77
2023/08/23 04:37:15;;;;;;;10.55;10.25;;;19.50;99.90;;;;;;6163680;23;20283;-77
2023/08/23 04:39:42;;;;;;;10.73;10.43;;;19.40;99.90;;;;;;6163700;23;20214;-77
2023/08/23 04:42:09;;;;;;;10.60;10.30;;;19.40;99.90;;;;;;6163610;23;20287;-77
2023/08/23 04:44:36;;;;;;;10.60;10.30;;;19.40;99.90;;;;;;6163950;23;20192;-77
2023/08/23 04:47:03;;;;;;;10.70;10.40;;;19.40;99.90;;;;;;6165171;23;20206;-77
2023/08/23 04:49:31;;;;;;;10.68;10.38;;;19.40;99.90;;;;;;6169234;23;20256;-77
2023/08/23 04:51:58;;;;;;;10.55;10.25;;;19.40;99.90;;;;;;6168226;23;20204;-78
2023/08/23 04:54:26;;;;;;;10.38;10.07;;;19.30;99.90;;;;;;6166749;23;20256;-77
2023/08/23 04:56:53;;;;;;;10.70;10.40;;;19.30;99.90;;;;;;6164269;23;20201;-77
2023/08/23 04:59:20;;;;;;;10.63;10.32;;;19.30;99.90;;;;;;6163724;23;20242;-77
2023/08/23 05:01:47;;;;;;;10.65;10.35;;;19.30;99.90;;;;;;6163431;23;20235;-77
2023/08/23 05:04:14;;;;;;;10.60;10.30;;;19.30;99.90;;;;;;6164010;23;20295;-77
2023/08/23 05:06:42;;;;;;;10.60;10.30;;;19.30;99.90;;;;;;6164237;23;20294;-77
2023/08/23 05:09:09;;;;;;;10.68;10.38;;;19.40;99.90;;;;;;6164484;23;20256;-77
2023/08/23 05:11:35;;;;;;;10.80;10.50;;;19.50;99.90;;;;;;6163309;23;20212;-77
2023/08/23 05:14:02;;;;;;;10.73;10.43;;;19.50;99.90;;;;;;6163484;23;20288;-77
2023/08/23 05:16:29;;;;;;;10.60;10.30;;;19.60;99.90;;;;;;6163291;23;20787;-77
2023/08/23 05:18:56;;;;;;;10.63;10.32;;;19.60;99.90;;;;;;6163337;23;20200;-77
2023/08/23 05:21:24;;;;;;;11.00;10.70;;;19.60;99.90;;;;;;6163341;23;20311;-78
2023/08/23 05:23:52;;;;;;;10.50;10.20;;;19.60;99.90;;;;;;6163528;23;20695;-77
2023/08/23 05:26:19;;;;;;;10.65;10.35;;;19.60;99.90;;;;;;6163579;23;20202;-77
2023/08/23 05:28:46;;;;;;;10.90;10.60;;;19.60;99.90;;;;;;6163213;23;20199;-77
2023/08/23 05:31:15;;;;;;;11.00;10.70;;;19.60;99.90;;;;;;6163045;23;20275;-77
2023/08/23 05:33:42;;;;;;;10.77;10.48;;;19.60;99.90;;;;;;6163483;23;20287;-77
2023/08/23 05:36:09;;;;;;;10.75;10.45;;;19.70;99.90;;;;;;6163810;23;20287;-77
2023/08/23 05:38:36;;;;;;;10.68;10.38;;;19.80;99.90;;;;;;6163436;23;20193;-77
2023/08/23 05:41:05;;;;;;;10.55;10.25;;;19.90;99.90;;;;;;6163215;23;20279;-77
2023/08/23 05:43:32;;;;;;;10.55;10.25;;;19.90;99.90;;;;;;6163469;23;20275;-77
2023/08/23 05:45:59;;;;;;;10.93;10.63;;;19.90;99.90;;;;;;6167871;23;20256;-77
2023/08/23 05:48:27;;;;;;;10.52;10.23;;;20.00;99.90;;;;;;6164098;23;20192;-77
2023/08/23 05:50:54;;;;;;;10.23;9.93;;;20.00;99.90;;;;;;6163886;23;20210;-77
2023/08/23 05:53:21;;;;;;;10.52;10.23;;;20.20;99.90;;;;;;6163304;23;20193;-77
2023/08/23 05:55:49;;;;;;;10.32;10.02;;;20.20;99.90;;;;;;6163610;23;20223;-77
2023/08/23 05:58:18;;;;;;;10.35;10.05;;;20.20;99.90;;;;;;6163510;23;20192;-77
2023/08/23 06:00:47;;;;;;;10.23;9.93;;;20.30;99.90;;;;;;6163398;23;20196;-77
2023/08/23 06:03:15;;;;;;;10.38;10.07;;;20.40;99.90;;;;;;6162682;23;20283;-77
2023/08/23 06:05:42;;;;;;;10.40;10.10;;;20.50;99.90;;;;;;6163619;23;20200;-77
2023/08/23 06:08:09;;;;;;;10.40;10.10;;;20.60;99.90;;;;;;6163468;23;20271;-77
2023/08/23 06:10:36;;;;;;;10.40;10.10;;;20.60;99.90;;;;;;6163400;23;20204;-77
2023/08/23 06:13:03;;;;;;;10.50;10.20;;;20.70;99.90;;;;;;6162783;23;20278;-77
2023/08/23 06:15:32;;;;;;;10.40;10.10;;;20.80;99.90;;;;;;6163098;23;20244;-77
2023/08/23 06:17:59;;;;;;;10.70;10.40;;;20.80;99.90;;;;;;6163424;23;20395;-78
2023/08/23 06:20:28;;;;;;;10.60;10.30;;;20.90;99.90;;;;;;6163479;23;20196;-78
2023/08/23 06:22:55;;;;;;;10.55;10.25;;;20.90;99.90;;;;;;6162398;23;20259;-78
2023/08/23 06:25:23;;;;;;;10.55;10.25;;;21.00;99.90;;;;;;6163640;23;20192;-78
2023/08/23 06:27:50;;;;;;;10.45;10.15;;;21.10;99.90;;;;;;6163300;23;20287;-78
2023/08/23 06:30:17;;;;;;;10.10;9.80;;;21.20;99.90;;;;;;6163274;23;20206;-78
2023/08/23 06:32:48;;;;;;;10.50;10.20;;;21.30;99.90;;;;;;6163273;23;20203;-78
2023/08/23 06:35:16;;;;;;;10.45;10.15;;;21.30;99.90;;;;;;6164658;23;20267;-78
2023/08/23 06:37:43;;;;;;;10.35;10.05;;;21.40;99.90;;;;;;6163962;23;20208;-78
2023/08/23 06:40:12;;;;;;;10.50;10.20;;;21.40;99.90;;;;;;6163435;23;20185;-78
2023/08/23 06:42:40;;;;;;;10.30;10.00;;;21.50;99.90;;;;;;6166484;23;20290;-79
2023/08/23 06:45:08;;;;;;;10.30;10.00;;;21.70;99.90;;;;;;6169220;23;20192;-78
2023/08/23 06:47:36;;;;;;;10.20;9.90;;;21.70;99.90;;;;;;6169675;23;20197;-78
2023/08/23 06:50:06;;;;;;;10.30;10.00;;;21.80;99.90;;;;;;6177141;23;20200;-79
2023/08/23 06:52:33;;;;;;;10.40;10.10;;;22.00;99.90;;;;;;6173896;23;20212;-78
2023/08/23 06:55:02;;;;;;;10.30;10.00;;;22.00;99.90;;;;;;6170232;23;20280;-79
2023/08/23 06:57:30;;;;;;;10.20;9.90;;;22.10;99.90;;;;;;6166416;23;20204;-78
2023/08/23 06:59:57;;;;;;;10.50;10.20;;;22.10;99.90;;;;;;6166238;23;20200;-79
2023/08/23 07:02:25;;;;;;;10.23;9.93;;;22.30;99.90;;;;;;6167071;23;20275;-79
2023/08/23 07:04:53;;;;;;;10.13;9.82;;;22.40;99.90;;;;;;6168152;23;20231;-79
2023/08/23 07:07:23;;;;;;;10.55;10.25;;;22.50;99.90;;;;;;6172242;23;20196;-80
2023/08/23 07:09:50;;;;;;;10.68;10.38;;;22.50;99.90;;;;;;6173393;23;20256;-79
2023/08/23 07:12:18;;;;;;;10.48;10.18;;;22.60;99.90;;;;;;6167488;23;20219;-78
2023/08/23 07:14:49;;;;;;;10.80;10.50;;;22.50;99.90;;;;;;6165681;23;20275;-78
2023/08/23 07:17:16;;;;;;;10.60;10.30;;;22.60;99.90;;;;;;6164975;23;20248;-80
2023/08/23 07:19:43;;;;;;;10.52;10.23;;;22.70;99.90;;;;;;6165383;23;20287;-78
2023/08/23 07:22:10;;;;;;;10.60;10.30;;;22.80;99.90;;;;;;6166199;23;20208;-79
2023/08/23 07:24:39;;;;;;;10.52;10.23;;;22.80;99.90;;;;;;6168301;23;20211;-82
2023/08/23 07:27:06;;;;;;;10.48;10.18;;;23.00;99.90;;;;;;6170934;23;20279;-84
2023/08/23 07:29:36;;;;;;;10.50;10.20;;;23.10;99.90;;;;;;6170659;23;20204;-82
2023/08/23 07:32:03;;;;;;;10.55;10.25;;;23.20;99.90;;;;;;6168774;23;20208;-80
2023/08/23 07:34:31;;;;;;;10.77;10.48;;;23.30;99.90;;;;;;6169690;23;20201;-81
2023/08/23 07:36:58;;;;;;;10.80;10.50;;;23.40;99.90;;;;;;6169031;23;20196;-81
2023/08/23 07:39:28;;;;;;;10.90;10.60;;;23.50;99.90;;;;;;6170148;23;20206;-81
2023/08/23 07:41:58;;;;;;;10.90;10.60;;;23.60;99.90;;;;;;6171091;23;21016;-82
2023/08/23 07:44:26;;;;;;;10.88;10.57;;;23.70;99.90;;;;;;6172044;23;20220;-83
2023/08/23 07:46:54;;;;;;;10.90;10.60;;;23.80;99.90;;;;;;6173515;23;20195;-83
2023/08/23 07:49:23;;;;;;;10.95;10.65;;;23.90;99.90;;;;;;6172832;23;20232;-82
2023/08/23 07:51:51;;;;;;;10.80;10.50;;;23.80;99.90;;;;;;6170302;23;20267;-82
2023/08/23 07:54:18;;;;;;;10.95;10.65;;;23.80;99.90;;;;;;6170484;23;20196;-82
2023/08/23 07:56:46;;;;;;;10.75;10.45;;;23.90;99.90;;;;;;6170534;23;20236;-83
2023/08/23 07:59:17;;;;;;;10.98;10.68;;;24.00;99.90;;;;;;6169386;23;20218;-83
2023/08/23 08:01:44;;;;;;;10.80;10.50;;;24.20;99.90;;;;;;6169983;23;20256;-82
2023/08/23 08:04:13;;;;;;;10.70;10.40;;;24.20;99.90;;;;;;6170464;23;20196;-82
2023/08/23 08:06:43;;;;;;;10.73;10.43;;;24.30;99.90;;;;;;6168266;23;20192;-83
2023/08/23 08:09:14;;;;;;;10.60;10.30;;;24.40;99.90;;;;;;6173259;23;20228;-83
2023/08/23 08:11:42;;;;;;;10.80;10.50;;;24.40;99.90;;;;;;6170787;23;20279;-83
2023/08/23 08:14:13;;;;;;;10.85;10.55;;;24.40;99.90;;;;;;6170072;23;20196;-83
2023/08/23 08:16:43;;;;;;;10.88;10.57;;;24.60;99.90;;;;;;6170470;23;20197;-84
2023/08/23 08:19:10;;;;;;;10.88;10.57;;;24.80;99.90;;;;;;6170363;23;20248;-83
2023/08/23 08:21:40;;;;;;;11.00;10.70;;;24.90;99.90;;;;;;6174343;23;20236;-84
2023/08/23 08:24:10;;;;;;;10.80;10.50;;;24.90;99.90;;;;;;6171123;23;20208;-83
2023/08/23 08:26:38;;;;;;;10.88;10.57;;;25.00;99.90;;;;;;6170324;23;20212;-83
2023/08/23 08:29:07;;;;;;;10.77;10.48;;;25.00;99.90;;;;;;6171246;23;20320;-83
2023/08/23 08:31:50;;;;;;;10.80;10.50;;;25.20;99.90;;;;;;6170651;23;20259;-83
2023/08/23 08:34:18;;;;;;;10.90;10.60;;;25.30;99.90;;;;;;6171606;23;20207;-83
2023/08/23 08:36:45;;;;;;;10.80;10.50;;;25.40;99.90;;;;;;6172822;23;20228;-81
2023/08/23 08:39:13;;;;;;;10.60;10.30;;;25.50;99.90;;;;;;6172984;23;20200;-81
2023/08/23 08:41:44;;;;;;;10.95;10.65;;;25.80;99.90;;;;;;6182277;23;20196;-83
2023/08/23 08:44:12;;;;;;;10.82;10.52;;;25.90;99.90;;;;;;6187477;23;20196;-81
2023/08/23 08:46:52;;;;;;;10.80;10.50;;;26.00;99.90;;;;;;6186510;23;20279;-82
2023/08/23 08:49:23;;;;;;;10.70;10.40;;;26.10;99.90;;;;;;6187530;23;20196;-83
2023/08/23 08:51:53;;;;;;;10.48;10.18;;;26.40;99.90;;;;;;6188844;23;20204;-84
2023/08/23 08:54:21;;;;;;;10.35;10.05;;;26.80;99.90;;;;;;6189464;22;20217;-84
2023/08/23 08:56:50;;;;;;;10.23;9.93;;;27.10;99.90;;;;;;6189074;22;20187;-82
2023/08/23 08:59:19;;;;;;;10.60;10.30;;;27.40;99.90;;;;;;6188012;22;20192;-83
2023/08/23 09:01:49;;;;;;;10.43;10.13;;;27.70;99.90;;;;;;6188563;22;20207;-82
2023/08/23 09:04:19;;;;;;;10.45;10.15;;;27.80;99.90;;;;;;6188377;23;20192;-82
2023/08/23 09:06:49;;;;;;;10.52;10.23;;;27.90;99.90;;;;;;6187193;23;20188;-82
2023/08/23 09:09:16;;;;;;;10.45;10.15;;;28.00;99.90;;;;;;6179951;23;20200;-80
2023/08/23 09:11:43;;;;;;;10.40;10.10;;;27.80;99.90;;;;;;6169763;23;20307;-80
2023/08/23 09:14:15;;;;;;;10.73;10.43;;;27.80;99.90;;;;;;6169185;23;20204;-79
2023/08/23 09:16:43;;;;;;;10.43;10.13;;;27.50;99.90;;;;;;6169341;23;20204;-80
2023/08/23 09:19:11;;;;;;;10.60;10.30;;;27.80;99.90;;;;;;6173590;23;20203;-76
2023/08/23 09:21:43;;;;;;;10.50;10.20;;;27.70;99.90;;;;;;6170092;23;20207;-80
2023/08/23 09:24:12;;;;;;;10.48;10.18;;;27.80;99.90;;;;;;6170172;23;20204;-80
2023/08/23 09:26:40;;;;;;;10.23;9.93;;;28.10;99.90;;;;;;6169063;23;20200;-79
2023/08/23 09:29:07;;;;;;;10.25;9.95;;;28.50;99.90;;;;;;6170690;23;20220;-79
2023/08/23 09:31:35;;;;;;;10.15;9.85;;;28.30;99.90;;;;;;6174664;23;20204;-80
2023/08/23 09:34:03;;;;;;;10.35;10.05;;;28.60;99.90;;;;;;6168403;23;20212;-80
2023/08/23 09:36:39;;;;;;;10.45;10.15;;;29.00;99.90;;;;;;6168573;23;20193;-79
2023/08/23 09:39:09;;;;;;;10.70;10.40;;;29.40;99.90;;;;;;6176808;23;20975;-79
2023/08/23 09:41:39;;;;;;;10.57;10.27;;;29.70;99.90;;;;;;6182106;23;20247;-79
2023/08/23 09:44:07;;;;;;;10.40;10.10;;;29.70;99.90;;;;;;6182708;23;20194;-79
2023/08/23 09:46:36;;;;;;;10.50;10.20;;;30.00;99.90;;;;;;6181566;23;20223;-79
2023/08/23 09:49:05;;;;;;;10.60;10.30;;;29.90;99.90;;;;;;6172822;23;20200;-80
2023/08/23 09:51:37;;;;;;;10.48;10.18;;;29.90;99.90;;;;;;6170624;23;20201;-80
2023/08/23 09:54:19;;;;;;;10.20;9.90;;;29.70;99.90;;;;;;6170028;23;20192;-80
2023/08/23 09:56:49;;;;;;;10.00;9.70;;;30.00;99.90;;;;;;6170393;23;20192;-81
2023/08/23 09:59:17;;;;;;;9.95;9.65;;;30.20;99.90;;;;;;6169773;23;20223;-80
2023/08/23 10:01:45;;;;;;;10.30;10.00;;;30.20;99.90;;;;;;6169834;23;20282;-81
2023/08/23 10:04:13;;;;;;;10.02;9.73;;;30.10;99.90;;;;;;6169598;23;20315;-81
2023/08/23 10:06:41;;;;;;;10.00;9.70;;;30.10;99.90;;;;;;6170196;23;20244;-80
2023/08/23 10:09:10;;;;;;;10.18;9.88;;;30.30;99.90;;;;;;6170376;23;20243;-82
2023/08/23 10:11:38;;;;;;;10.30;10.00;;;30.30;99.90;;;;;;6170386;23;20200;-82
2023/08/23 10:14:09;;;;;;;10.20;9.90;;;30.40;99.90;;;;;;6169319;23;20220;-80
2023/08/23 10:16:37;;;;;;;10.32;10.02;;;30.50;99.90;;;;;;6168770;23;20260;-80
2023/08/23 10:19:04;;;;;;;10.10;9.80;;;30.50;99.90;;;;;;6169031;23;20268;-79
2023/08/23 10:21:31;;;;;;;10.50;10.20;;;30.90;99.90;;;;;;6169533;23;20283;-80
2023/08/23 10:23:58;;;;;;;10.48;10.18;;;31.20;99.90;;;;;;6170629;23;20204;-79
2023/08/23 10:26:26;;;;;;;10.30;10.00;;;31.10;99.90;;;;;;6168984;23;20216;-80
2023/08/23 10:28:54;;;;;;;10.20;9.90;;;31.20;99.90;;;;;;6168388;23;20207;-79
2023/08/23 10:31:28;;;;;;;10.32;10.02;;;31.20;99.90;;;;;;6167447;23;20231;-80
2023/08/23 10:33:56;;;;;;;10.27;9.98;;;30.80;99.90;;;;;;6168072;23;20205;-79
2023/08/23 10:36:27;;;;;;;10.30;10.00;;;30.80;99.90;;;;;;6167406;23;20204;-79
2023/08/23 10:38:56;;;;;;;10.50;10.20;;;31.00;99.90;;;;;;6167511;23;20271;-79
2023/08/23 10:41:23;;;;;;;10.30;10.00;;;31.10;99.90;;;;;;6176027;23;20204;-79
2023/08/23 10:43:51;;;;;;;10.30;10.00;;;31.40;99.90;;;;;;6181491;22;20202;-79
2023/08/23 10:46:19;;;;;;;10.60;10.30;;;31.90;99.90;;;;;;6181700;23;20208;-78
2023/08/23 10:48:48;;;;;;;10.40;10.10;;;32.10;99.90;;;;;;6169615;23;20264;-79
2023/08/23 10:51:16;;;;;;;10.38;10.07;;;32.20;99.90;;;;;;6167661;23;20269;-79
2023/08/23 10:53:44;;;;;;;10.63;10.32;;;32.00;99.90;;;;;;6166648;23;20264;-78
2023/08/23 10:56:11;;;;;;;10.48;10.18;;;32.10;99.90;;;;;;6168290;23;20283;-79
2023/08/23 10:58:39;;;;;;;10.65;10.35;;;32.30;99.90;;;;;;6167738;23;20318;-80
2023/08/23 11:01:06;;;;;;;10.90;10.60;;;32.50;99.90;;;;;;6168330;23;20219;-79
2023/08/23 11:03:35;;;;;;;10.45;10.15;;;32.10;99.90;;;;;;6167506;23;20224;-81
2023/08/23 11:06:03;;;;;;;10.80;10.50;;;32.10;99.90;;;;;;6166011;23;20231;-79
2023/08/23 11:08:31;;;;;;;10.32;10.02;;;32.20;99.90;;;;;;6168201;23;20230;-80
2023/08/23 11:10:59;;;;;;;10.57;10.27;;;32.30;99.90;;;;;;6169796;23;20195;-80
2023/08/23 11:13:26;;;;;;;10.45;10.15;;;32.30;99.90;;;;;;6169001;23;20227;-80
2023/08/23 11:15:54;;;;;;;10.40;10.10;;;32.60;99.90;;;;;;6168836;23;20235;-80
2023/08/23 11:18:23;;;;;;;10.50;10.20;;;32.70;99.90;;;;;;6169483;23;20188;-81
2023/08/23 11:20:51;;;;;;;10.38;10.07;;;32.90;99.90;;;;;;6171131;23;20211;-80
2023/08/23 11:23:20;;;;;;;10.65;10.35;;;33.10;99.90;;;;;;6171276;23;20207;-80
2023/08/23 11:25:48;;;;;;;10.80;10.50;;;33.20;99.90;;;;;;6170346;23;20211;-80
2023/08/23 11:28:15;;;;;;;10.70;10.40;;;33.30;99.90;;;;;;6171509;23;20204;-80
2023/08/23 11:30:43;;;;;;;10.45;10.15;;;33.30;99.90;;;;;;6170062;23;20215;-81
2023/08/23 11:33:10;;;;;;;10.75;10.45;;;33.60;99.90;;;;;;6169836;23;20211;-80
2023/08/23 11:35:37;;;;;;;10.70;10.40;;;33.40;99.90;;;;;;6169442;23;20223;-80
2023/08/23 11:38:05;;;;;;;10.70;10.40;;;33.40;99.90;;;;;;6169651;23;20196;-83
2023/08/23 11:40:35;;;;;;;10.52;10.23;;;33.50;99.90;;;;;;6169056;23;20203;-80
2023/08/23 11:43:07;;;;;;;10.65;10.35;;;33.50;99.90;;;;;;6176562;22;20207;-79
2023/08/23 11:45:38;;;;;;;10.70;10.40;;;33.60;99.90;;;;;;6165899;23;20188;-80
2023/08/23 11:48:06;;;;;;;10.57;10.27;;;33.90;99.90;;;;;;6166068;23;20204;-80
2023/08/23 11:50:34;;;;;;;10.60;10.30;;;34.10;99.90;;;;;;6167977;23;20192;-83
2023/08/23 11:53:04;;;;;;;10.70;10.40;;;33.70;99.90;;;;;;6167947;23;20204;-80
2023/08/23 11:55:35;;;;;;;10.57;10.27;;;33.70;99.90;;;;;;6167356;23;20274;-80
2023/08/23 11:58:04;;;;;;;10.70;10.40;;;33.80;99.90;;;;;;6167593;23;20196;-80
2023/08/23 12:00:33;;;;;;;10.27;9.98;;;33.70;99.90;;;;;;6167924;23;20201;-80
2023/08/23 12:03:00;;;;;;;10.60;10.30;;;33.40;99.90;;;;;;6167202;23;20200;-80
2023/08/23 12:05:27;;;;;;;10.30;10.00;;;33.20;99.90;;;;;;6166940;23;20294;-80
2023/08/23 12:07:54;;;;;;;10.20;9.90;;;33.00;99.90;;;;;;6166578;23;20267;-79
2023/08/23 12:10:22;;;;;;;10.38;10.07;;;33.30;99.90;;;;;;6166750;23;20232;-79
2023/08/23 12:12:51;;;;;;;10.32;10.02;;;33.50;99.90;;;;;;6169276;23;20227;-81
2023/08/23 12:15:18;;;;;;;10.20;9.90;;;33.80;99.90;;;;;;6170331;23;20211;-80
2023/08/23 12:17:45;;;;;;;10.13;9.82;;;34.10;99.90;;;;;;6169698;23;20200;-80
2023/08/23 12:20:13;;;;;;;10.07;9.77;;;33.90;99.90;;;;;;6173401;23;20196;-79
2023/08/23 12:22:46;;;;;;;10.27;9.98;;;33.70;99.90;;;;;;6170742;23;20263;-81
2023/08/23 12:25:13;;;;;;;10.07;9.77;;;33.90;99.90;;;;;;6172803;23;20196;-80
2023/08/23 12:27:41;;;;;;;10.15;9.85;;;33.90;99.90;;;;;;6169675;23;20242;-80
2023/08/23 12:30:11;;;;;;;10.45;10.15;;;33.40;99.90;;;;;;6169594;23;20196;-80
2023/08/23 12:32:38;;;;;;;10.43;10.13;;;33.70;99.90;;;;;;6168975;23;20208;-79
2023/08/23 12:35:06;;;;;;;10.20;9.90;;;34.10;99.90;;;;;;6169840;23;20212;-80